Flight Track Log - Related Links

Times and Time Zones

All times are in EDT time to prevent confusion due to time zone crossing. See the SKW7363 flight status page for this flight to view local times or setup timezone preferences in your user account.

Time Position Orientation Groundspeed Altitude Reporting Facility
EDT Latitude Longitude Course Direction KTS MPH feet Rate Location/Type
Fri 10:25:33 AM 44.9000 -93.2333 North 159 183 2,300  Level Minneapolis TRACON
Fri 10:26:27 AM 44.9500 -93.2500 347° North 210 242 4,000 1,953 Climbing Minneapolis TRACON
Fri 10:27:42 AM 45.0169 -93.2483 North 261 300 6,500 2,652 Climbing Minneapolis Center
Fri 10:28:00 AM 45.2349 -93.3667 North  Level FlightAware Approximate
Fri 10:28:45 AM 45.1114 -93.2514 359° North 282 325 10,100  Level Minneapolis Center
Fri 10:29:00 AM 45.3323 -93.3667 North  Level FlightAware Approximate
Fri 10:29:47 AM 45.2128 -93.2539 359° North 301 346 12,700  Level Minneapolis Center
Fri 10:30:00 AM 45.4297 -93.3667 North  Level FlightAware Approximate
Fri 10:30:49 AM 45.3028 -93.2567 359° North 320 368 15,300  Level Minneapolis Center
Fri 10:31:51 AM 45.3942 -93.2569 360° North 329 379 17,300 1,887 Climbing Minneapolis Center
Fri 10:32:53 AM 45.4978 -93.2625 358° North 334 384 19,200 1,597 Climbing Minneapolis Center
Fri 10:33:55 AM 45.5833 -93.2608 North 345 397 20,600 1,452 Climbing Minneapolis Center
Fri 10:34:57 AM 45.6994 -93.2636 359° North 348 400 22,200 1,452 Climbing Minneapolis Center
Fri 10:35:59 AM 45.7992 -93.2653 359° North 356 410 23,600 1,248 Climbing Minneapolis Center
Fri 10:37:02 AM 45.8994 -93.2656 360° North 361 415 24,800 1,104 Climbing Minneapolis Center
Fri 10:38:04 AM 46.0000 -93.2675 359° North 362 417 25,900 529 Climbing Minneapolis Center
Fri 10:39:18 AM 46.1056 -93.2683 360° North 375 432 26,000 44 Climbing Minneapolis Center
Fri 10:40:20 AM 46.2511 -93.2714 359° North 388 447 26,000  Level Minneapolis Center
Fri 10:41:22 AM 46.3578 -93.2739 359° North 386 444 26,000  Level Minneapolis Center
Fri 10:42:24 AM 46.4639 -93.2728 360° North 384 442 26,000  Level Minneapolis Center
Fri 10:43:26 AM 46.5692 -93.2775 358° North 381 438 26,000  Level Minneapolis Center
Fri 10:44:28 AM 46.6758 -93.2769 360° North 383 441 26,000  Level Minneapolis Center
Fri 10:45:30 AM 46.7811 -93.2772 360° North 380 437 26,000  Level Minneapolis Center
Fri 10:46:32 AM 46.9081 -93.2817 359° North 380 437 26,000  Level Minneapolis Center
Fri 10:47:35 AM 47.0131 -93.2828 360° North 379 436 26,000  Level Minneapolis Center
Fri 10:48:37 AM 47.1194 -93.2872 358° North 381 438 26,000  Level Minneapolis Center
Fri 10:49:39 AM 47.2247 -93.2878 360° North 378 435 26,000  Level Minneapolis Center
Fri 10:50:41 AM 47.3317 -93.2892 359° North 379 436 26,000  Level Minneapolis Center
Fri 10:51:43 AM 47.4431 -93.2928 359° North 385 443 26,000 -339 Level Minneapolis Center
Fri 10:52:45 AM 47.5508 -93.2922 360° North 381 438 25,300 -1,887 Descending Minneapolis Center
Fri 10:53:47 AM 47.6561 -93.2903 North 377 434 22,100 -3,484 Descending Minneapolis Center
Fri 10:54:49 AM 47.7797 -93.3069 355° North 373 429 18,100 -3,484 Descending Minneapolis Center
Fri 10:55:51 AM 47.8814 -93.3186 356° North 369 425 14,900 -3,194 Descending Minneapolis Center
Fri 10:56:53 AM 47.9819 -93.3308 355° North 367 422 11,500 -2,323 Descending Minneapolis Center
Fri 10:57:55 AM 48.0686 -93.3425 355° North 336 387 10,100 -1,597 Descending Minneapolis Center
Fri 10:58:57 AM 48.1286 -93.3506 355° North 298 343 8,200 -2,323 Descending Minneapolis Center
Fri 10:59:59 AM 48.2139 -93.3606 356° North 268 308 5,300 -1,728 Descending Minneapolis Center
Fri 11:01:02 AM 48.2906 -93.3589 North 241 277 4,600 -576 Descending Minneapolis Center
Fri 11:02:04 AM 48.3408 -93.3408 13° North 205 236 4,100 -339 Descending Minneapolis Center
Fri 11:03:06 AM 48.3886 -93.3303 North 187 215 3,900 98 Descending Minneapolis Center
Fri 11:04:07 AM 48.4319 -93.3236 North 187 215 4,300 -145 Climbing Minneapolis Center
Fri 11:05:10 AM 48.5000 -93.3192 North 198 228 3,600 -720 Descending Minneapolis Center
Fri 11:06:12 AM 48.5486 -93.3458 340° North 188 216 2,800 -774 Descending Minneapolis Center

Login

Don't have an account? Register now (free) for customized features, flight alerts, and more!